createdAt,value
2019-01-19T00:00:27.995Z,92.10
2019-01-19T00:05:14.345Z,92.20
2019-01-19T00:09:58.755Z,92.00
2019-01-19T00:14:22.321Z,92.20
2019-01-19T00:19:06.483Z,92.30
2019-01-19T00:23:43.071Z,92.10
2019-01-19T00:28:02.451Z,92.00
2019-01-19T00:32:40.938Z,91.90
2019-01-19T00:37:18.959Z,92.10
2019-01-19T00:41:57.202Z,92.20
2019-01-19T00:46:37.788Z,91.80
2019-01-19T00:51:21.272Z,91.70
2019-01-19T00:55:53.624Z,91.60
2019-01-19T01:00:03.998Z,91.80
2019-01-19T01:04:47.167Z,91.60
2019-01-19T01:09:09.598Z,91.70
2019-01-19T01:13:33.234Z,92.00
2019-01-19T01:17:50.241Z,91.90
2019-01-19T01:22:49.841Z,91.90
2019-01-19T01:27:31.053Z,91.80
2019-01-19T01:31:57.225Z,91.70
2019-01-19T01:36:38.047Z,91.70
2019-01-19T01:41:21.806Z,91.80
2019-01-19T01:45:48.626Z,91.70
2019-01-19T01:50:26.371Z,91.80
2019-01-19T01:54:48.109Z,92.00
2019-01-19T01:59:30.765Z,91.50
2019-01-19T02:03:58.604Z,91.70
2019-01-19T02:08:36.055Z,91.70
2019-01-19T02:17:47.531Z,91.90
2019-01-19T02:22:40.826Z,92.00
2019-01-19T02:27:09.654Z,92.00
2019-01-19T02:31:54.238Z,91.80
2019-01-19T02:36:16.231Z,92.20
2019-01-19T02:41:15.328Z,92.20
2019-01-19T02:46:00.168Z,91.80
2019-01-19T02:50:38.992Z,91.80
2019-01-19T02:55:17.304Z,91.70
2019-01-19T02:59:52.227Z,91.50
2019-01-19T03:04:22.544Z,91.10
2019-01-19T03:08:51.372Z,90.60
2019-01-19T03:13:08.176Z,90.50
2019-01-19T03:17:43.896Z,90.30
2019-01-19T03:22:20.786Z,90.60
2019-01-19T03:26:54.653Z,90.10
2019-01-19T03:31:42.778Z,90.40
2019-01-19T03:36:35.940Z,90.50
2019-01-19T03:41:04.043Z,90.90
2019-01-19T03:45:31.902Z,91.00
2019-01-19T03:50:15.657Z,90.80
2019-01-19T03:54:36.651Z,90.80
2019-01-19T03:59:30.486Z,90.80
2019-01-19T04:04:04.064Z,90.40
2019-01-19T04:08:39.624Z,90.40
2019-01-19T04:13:10.418Z,90.10
2019-01-19T04:18:10.037Z,88.30
2019-01-19T04:22:35.565Z,90.10
2019-01-19T04:26:44.595Z,90.50
2019-01-19T04:30:50.982Z,90.60
2019-01-19T04:34:57.822Z,91.00
2019-01-19T04:39:08.246Z,90.60
2019-01-19T04:43:14.537Z,91.00
2019-01-19T04:47:21.368Z,90.90
2019-01-19T04:51:28.552Z,90.90
2019-01-19T04:55:35.088Z,91.20
2019-01-19T04:59:41.431Z,90.90
2019-01-19T05:03:47.854Z,91.20
2019-01-19T05:07:54.613Z,90.80
2019-01-19T05:12:01.010Z,90.80
2019-01-19T05:16:07.466Z,90.60
2019-01-19T05:20:14.202Z,90.70
2019-01-19T05:24:21.869Z,90.50
2019-01-19T05:28:28.342Z,90.90
2019-01-19T05:32:34.765Z,91.20
2019-01-19T05:36:41.196Z,91.40
2019-01-19T05:40:49.132Z,91.00
2019-01-19T05:44:55.612Z,90.90
2019-01-19T05:49:01.921Z,91.00
2019-01-19T05:53:08.339Z,90.60
2019-01-19T05:57:15.604Z,90.90
2019-01-19T06:01:23.077Z,91.60
2019-01-19T06:05:29.444Z,91.60
2019-01-19T06:09:36.800Z,91.30
2019-01-19T06:13:43.997Z,90.60
2019-01-19T06:17:51.377Z,90.80
2019-01-19T06:22:01.995Z,90.80
2019-01-19T06:26:08.458Z,90.40
2019-01-19T06:30:20.659Z,89.90
2019-01-19T06:34:46.637Z,90.20
2019-01-19T06:38:52.895Z,90.20
2019-01-19T06:42:59.284Z,90.00
2019-01-19T06:47:05.634Z,89.50
2019-01-19T06:51:12.100Z,89.90
2019-01-19T06:55:21.229Z,90.10
2019-01-19T06:59:27.603Z,90.20
2019-01-19T07:03:34.443Z,90.50
2019-01-19T07:07:40.829Z,90.70
2019-01-19T07:11:47.506Z,90.10
2019-01-19T07:15:53.947Z,90.10
2019-01-19T07:20:01.181Z,89.30
2019-01-19T07:24:07.674Z,89.50
2019-01-19T07:28:14.044Z,88.90
2019-01-19T07:32:20.538Z,88.40
2019-01-19T07:40:37.088Z,90.10
2019-01-19T07:44:43.473Z,89.50
2019-01-19T07:48:49.860Z,90.30
2019-01-19T07:52:57.048Z,88.20
2019-01-19T07:57:03.600Z,87.20
2019-01-19T08:01:09.906Z,86.80
2019-01-19T08:05:16.497Z,87.00
2019-01-19T08:09:22.921Z,88.80
2019-01-19T08:13:29.388Z,87.70
2019-01-19T08:17:35.674Z,86.50
2019-01-19T08:21:44.683Z,86.30
2019-01-19T08:25:52.294Z,86.00
2019-01-19T08:29:58.759Z,86.50
2019-01-19T08:34:06.032Z,85.10
2019-01-19T08:38:12.627Z,84.30
2019-01-19T08:42:19.744Z,86.00
2019-01-19T08:46:27.257Z,84.50
2019-01-19T08:50:33.657Z,83.90
2019-01-19T08:54:42.178Z,83.90
2019-01-19T08:58:48.639Z,86.70
2019-01-19T09:02:57.236Z,88.00
2019-01-19T09:07:04.059Z,84.60
2019-01-19T09:11:10.680Z,87.30
2019-01-19T09:15:22.128Z,82.20
2019-01-19T09:19:31.265Z,82.70
2019-01-19T09:23:44.919Z,81.20
2019-01-19T09:27:52.680Z,79.40
2019-01-19T09:36:38.980Z,80.00
2019-01-19T09:40:47.415Z,81.60
2019-01-19T09:44:54.216Z,81.70
2019-01-19T09:49:00.559Z,81.70
2019-01-19T09:53:07.209Z,80.80
2019-01-19T09:57:13.479Z,82.20
2019-01-19T10:01:19.922Z,81.10
2019-01-19T10:05:26.335Z,80.00
2019-01-19T10:09:33.855Z,78.70
2019-01-19T10:13:40.139Z,78.00
2019-01-19T10:17:48.331Z,80.20
2019-01-19T10:21:55.596Z,79.70
2019-01-19T10:26:03.074Z,82.80
2019-01-19T10:30:13.229Z,83.10
2019-01-19T10:34:21.545Z,82.10
2019-01-19T10:38:28.058Z,82.60
2019-01-19T10:42:35.161Z,80.90
2019-01-19T10:46:41.534Z,79.40
2019-01-19T10:50:48.254Z,79.50
2019-01-19T10:54:54.594Z,80.70
2019-01-19T10:59:02.342Z,77.80
2019-01-19T11:03:08.657Z,79.80
2019-01-19T11:07:15.295Z,78.00
2019-01-19T11:11:22.576Z,78.50
2019-01-19T11:15:30.713Z,79.00
2019-01-19T11:19:37.074Z,73.70
2019-01-19T11:23:43.581Z,77.20
2019-01-19T11:27:49.921Z,77.50
2019-01-19T11:31:57.637Z,78.00
2019-01-19T11:36:04.139Z,80.00
2019-01-19T11:40:16.361Z,79.90
2019-01-19T11:44:22.701Z,81.80
2019-01-19T11:48:30.016Z,80.30
2019-01-19T11:52:36.324Z,81.70
2019-01-19T11:56:43.172Z,80.70
2019-01-19T12:00:49.513Z,80.20
2019-01-19T12:04:56.531Z,79.30
2019-01-19T12:09:05.679Z,79.90
2019-01-19T12:13:15.198Z,79.70
2019-01-19T12:17:21.501Z,79.70
2019-01-19T12:21:28.523Z,78.40
2019-01-19T12:25:34.873Z,78.40
2019-01-19T12:29:42.648Z,78.70
2019-01-19T12:33:48.912Z,77.00
2019-01-19T12:37:58.199Z,76.60
2019-01-19T12:42:04.652Z,77.10
2019-01-19T12:46:12.219Z,76.90
2019-01-19T12:50:23.169Z,78.20
2019-01-19T12:54:31.145Z,78.60
2019-01-19T12:58:37.576Z,77.80
2019-01-19T13:02:45.154Z,76.40
2019-01-19T13:06:58.085Z,74.70
2019-01-19T13:11:19.553Z,75.90
2019-01-19T13:15:57.279Z,75.10
2019-01-19T13:20:33.148Z,75.20
2019-01-19T13:25:17.553Z,74.60
2019-01-19T13:29:58.683Z,73.50
2019-01-19T13:34:40.462Z,72.80
2019-01-19T13:39:22.224Z,72.80
2019-01-19T13:44:09.915Z,73.70
2019-01-19T13:48:50.349Z,73.10
2019-01-19T13:53:58.807Z,73.70
2019-01-19T13:58:36.526Z,75.10
2019-01-19T14:03:22.598Z,74.90
2019-01-19T14:08:06.885Z,74.60
2019-01-19T14:12:40.952Z,73.50
2019-01-19T14:17:43.526Z,73.70
2019-01-19T14:22:29.363Z,73.60
2019-01-19T14:27:08.944Z,73.80
2019-01-19T14:31:47.092Z,74.20
2019-01-19T14:36:38.460Z,74.60
2019-01-19T14:40:58.090Z,74.20
2019-01-19T14:45:45.472Z,74.00
2019-01-19T14:50:06.502Z,73.30
2019-01-19T14:54:51.593Z,74.10
2019-01-19T14:59:23.740Z,74.30
2019-01-19T15:04:05.002Z,75.60
2019-01-19T15:08:30.212Z,75.30
2019-01-19T15:13:11.080Z,77.50
2019-01-19T15:17:58.482Z,77.70
2019-01-19T15:22:59.675Z,78.80
2019-01-19T15:27:21.242Z,78.90
2019-01-19T15:32:15.096Z,80.20
2019-01-19T15:37:12.320Z,79.20
2019-01-19T15:41:55.621Z,79.00
2019-01-19T15:46:26.714Z,78.70
2019-01-19T15:51:02.342Z,79.70
2019-01-19T15:55:45.451Z,80.00
2019-01-19T16:00:33.844Z,79.80
2019-01-19T16:05:12.606Z,80.50
2019-01-19T16:10:14.069Z,80.40
2019-01-19T16:14:51.321Z,80.30
2019-01-19T16:19:47.853Z,80.60
2019-01-19T16:24:56.276Z,81.10
2019-01-19T16:29:20.978Z,80.40
2019-01-19T16:34:37.621Z,80.80
2019-01-19T16:39:25.508Z,81.50
2019-01-19T16:43:58.003Z,81.70
2019-01-19T16:48:29.385Z,81.80
2019-01-19T16:52:55.800Z,81.60
2019-01-19T16:57:26.512Z,81.80
2019-01-19T17:02:12.904Z,80.80
2019-01-19T17:06:40.574Z,81.10
2019-01-19T17:11:12.118Z,81.20
2019-01-19T17:15:52.090Z,80.60
2019-01-19T17:20:18.700Z,81.20
2019-01-19T17:24:49.997Z,81.70
2019-01-19T17:29:33.603Z,80.70
2019-01-19T17:34:06.460Z,81.30
2019-01-19T17:38:46.202Z,80.60
2019-01-19T17:43:42.884Z,80.80
2019-01-19T17:48:56.083Z,80.40
2019-01-19T17:53:49.592Z,84.20
2019-01-19T18:03:35.345Z,82.50
2019-01-19T18:08:32.963Z,82.50
2019-01-19T18:13:32.713Z,82.40
2019-01-19T18:18:30.998Z,83.70
2019-01-19T18:23:21.107Z,84.60
2019-01-19T18:28:12.806Z,84.40
2019-01-19T18:32:55.015Z,84.30
2019-01-19T18:37:52.620Z,85.10
2019-01-19T18:42:28.909Z,82.40
2019-01-19T18:47:09.780Z,84.50
2019-01-19T18:51:36.463Z,84.90
2019-01-19T18:56:23.140Z,84.60
2019-01-19T19:01:07.932Z,84.50
2019-01-19T19:05:47.832Z,84.80
2019-01-19T19:10:25.963Z,85.60
2019-01-19T19:15:26.363Z,84.20
2019-01-19T19:20:20.297Z,83.60
2019-01-19T19:24:51.631Z,82.80
2019-01-19T19:29:26.728Z,82.20
2019-01-19T19:33:45.481Z,84.00
2019-01-19T19:38:41.914Z,84.40
2019-01-19T19:43:28.975Z,84.50
2019-01-19T19:48:16.063Z,84.40
2019-01-19T19:52:27.895Z,83.10
2019-01-19T19:56:29.051Z,83.50
2019-01-19T20:00:36.727Z,84.40
2019-01-19T20:04:43.328Z,84.50
2019-01-19T20:08:51.256Z,84.20
2019-01-19T20:12:57.604Z,83.70
2019-01-19T20:17:05.824Z,84.70
2019-01-19T20:21:12.262Z,83.50
2019-01-19T20:25:18.755Z,84.50
2019-01-19T20:29:26.179Z,84.00
2019-01-19T20:33:33.663Z,83.70
2019-01-19T20:37:39.911Z,84.90
2019-01-19T20:41:47.553Z,84.40
2019-01-19T20:45:54.197Z,83.30
2019-01-19T20:50:02.520Z,84.20
2019-01-19T20:54:09.050Z,83.80
2019-01-19T20:58:15.722Z,84.50
2019-01-19T21:02:22.093Z,85.30
2019-01-19T21:06:28.728Z,85.10
2019-01-19T21:10:35.803Z,84.20
2019-01-19T21:14:42.339Z,84.20
2019-01-19T21:18:48.711Z,84.50
2019-01-19T21:22:55.709Z,84.30
2019-01-19T21:27:02.207Z,85.30
2019-01-19T21:31:08.810Z,85.90
2019-01-19T21:35:15.107Z,85.10
2019-01-19T21:39:21.705Z,84.80
2019-01-19T21:43:29.687Z,85.30
2019-01-19T21:47:37.903Z,85.70
2019-01-19T21:51:44.208Z,85.80
2019-01-19T21:55:51.997Z,86.20
2019-01-19T21:59:58.468Z,86.20
2019-01-19T22:04:05.101Z,85.50
2019-01-19T22:08:11.437Z,84.80
2019-01-19T22:12:21.043Z,84.60
2019-01-19T22:16:27.421Z,84.40
2019-01-19T22:20:36.913Z,86.30
2019-01-19T22:24:43.287Z,86.60
2019-01-19T22:28:51.580Z,86.10
2019-01-19T22:32:58.003Z,86.60
2019-01-19T22:37:04.973Z,87.20
2019-01-19T22:41:12.699Z,86.50
2019-01-19T22:45:21.337Z,86.70
2019-01-19T22:49:27.652Z,86.40
2019-01-19T22:53:34.210Z,86.60
2019-01-19T22:57:42.407Z,86.50
2019-01-19T23:01:57.081Z,85.10
2019-01-19T23:06:03.725Z,86.00
2019-01-19T23:10:10.619Z,85.80
2019-01-19T23:14:16.979Z,87.10
2019-01-19T23:18:23.881Z,87.60
2019-01-19T23:22:30.407Z,88.70
2019-01-19T23:26:37.408Z,86.70
2019-01-19T23:30:43.732Z,87.20
2019-01-19T23:34:50.834Z,87.80
2019-01-19T23:38:57.200Z,89.20
2019-01-19T23:43:04.058Z,89.60
2019-01-19T23:47:11.634Z,89.10
2019-01-19T23:51:19.351Z,88.00
2019-01-19T23:55:25.620Z,87.60
2019-01-19T23:59:32.107Z,88.20
